sensor_id;sensor_type;location;lat;lon;timestamp;temperature;humidity
53776;DHT22;44276;49.534;6.378;2023-01-31T00:00:02;-1.40;99.90
53776;DHT22;44276;49.534;6.378;2023-01-31T00:02:33;-1.40;99.90
53776;DHT22;44276;49.534;6.378;2023-01-31T00:05:02;-1.30;99.90
53776;DHT22;44276;49.534;6.378;2023-01-31T00:07:30;-1.20;99.90
53776;DHT22;44276;49.534;6.378;2023-01-31T00:09:58;-1.10;99.90
53776;DHT22;44276;49.534;6.378;2023-01-31T00:12:28;-1.10;99.90
53776;DHT22;44276;49.534;6.378;2023-01-31T00:14:57;-1.20;99.90
53776;DHT22;44276;49.534;6.378;2023-01-31T00:17:26;-1.30;99.90
53776;DHT22;44276;49.534;6.378;2023-01-31T00:19:56;-1.30;99.90
53776;DHT22;44276;49.534;6.378;2023-01-31T00:22:24;-1.20;99.90
53776;DHT22;44276;49.534;6.378;2023-01-31T00:24:52;-1.20;99.90
53776;DHT22;44276;49.534;6.378;2023-01-31T00:27:20;-1.20;99.90
53776;DHT22;44276;49.534;6.378;2023-01-31T00:29:48;-1.30;99.90
53776;DHT22;44276;49.534;6.378;2023-01-31T00:32:18;-1.40;99.90
53776;DHT22;44276;49.534;6.378;2023-01-31T00:34:46;-1.50;99.90
53776;DHT22;44276;49.534;6.378;2023-01-31T00:37:15;-1.70;99.90
53776;DHT22;44276;49.534;6.378;2023-01-31T00:39:43;-1.70;99.90
53776;DHT22;44276;49.534;6.378;2023-01-31T00:42:11;-1.80;99.90
53776;DHT22;44276;49.534;6.378;2023-01-31T00:44:39;-1.80;99.90
53776;DHT22;44276;49.534;6.378;2023-01-31T00:47:07;-1.90;99.90
53776;DHT22;44276;49.534;6.378;2023-01-31T00:49:37;-1.90;99.90
53776;DHT22;44276;49.534;6.378;2023-01-31T00:52:05;-1.90;99.90
53776;DHT22;44276;49.534;6.378;2023-01-31T00:54:33;-2.00;99.90
53776;DHT22;44276;49.534;6.378;2023-01-31T00:57:03;-2.00;99.90
53776;DHT22;44276;49.534;6.378;2023-01-31T00:59:31;-2.00;99.90
53776;DHT22;44276;49.534;6.378;2023-01-31T01:02:00;-1.90;99.90
53776;DHT22;44276;49.534;6.378;2023-01-31T01:04:28;-1.80;99.90
53776;DHT22;44276;49.534;6.378;2023-01-31T01:06:57;-1.70;99.90
53776;DHT22;44276;49.534;6.378;2023-01-31T01:09:25;-1.70;99.90
53776;DHT22;44276;49.534;6.378;2023-01-31T01:11:54;-1.70;99.90
53776;DHT22;44276;49.534;6.378;2023-01-31T01:14:22;-1.60;99.90
53776;DHT22;44276;49.534;6.378;2023-01-31T01:16:50;-1.50;99.90
53776;DHT22;44276;49.534;6.378;2023-01-31T01:19:19;-1.40;99.90
53776;DHT22;44276;49.534;6.378;2023-01-31T01:21:47;-1.30;99.90
53776;DHT22;44276;49.534;6.378;2023-01-31T01:24:18;-1.30;99.90
53776;DHT22;44276;49.534;6.378;2023-01-31T01:26:46;-1.30;99.90
53776;DHT22;44276;49.534;6.378;2023-01-31T01:29:15;-1.20;99.90
53776;DHT22;44276;49.534;6.378;2023-01-31T01:31:43;-1.20;99.90
53776;DHT22;44276;49.534;6.378;2023-01-31T01:34:13;-1.20;99.90
53776;DHT22;44276;49.534;6.378;2023-01-31T01:36:43;-1.10;99.90
53776;DHT22;44276;49.534;6.378;2023-01-31T01:39:13;-1.00;99.90
53776;DHT22;44276;49.534;6.378;2023-01-31T01:41:44;-1.00;99.90
53776;DHT22;44276;49.534;6.378;2023-01-31T01:44:42;-1.00;99.90
53776;DHT22;44276;49.534;6.378;2023-01-31T01:47:37;-1.00;99.90
53776;DHT22;44276;49.534;6.378;2023-01-31T01:50:13;-1.00;99.90
53776;DHT22;44276;49.534;6.378;2023-01-31T01:52:48;-1.00;99.90
53776;DHT22;44276;49.534;6.378;2023-01-31T01:55:22;-1.00;99.90
53776;DHT22;44276;49.534;6.378;2023-01-31T01:58:01;-1.00;99.90
53776;DHT22;44276;49.534;6.378;2023-01-31T02:00:33;-1.10;99.90
53776;DHT22;44276;49.534;6.378;2023-01-31T02:03:05;-1.20;99.90
53776;DHT22;44276;49.534;6.378;2023-01-31T02:05:38;-1.40;99.90
53776;DHT22;44276;49.534;6.378;2023-01-31T02:08:11;-1.50;99.90
53776;DHT22;44276;49.534;6.378;2023-01-31T02:10:47;-1.60;99.90
53776;DHT22;44276;49.534;6.378;2023-01-31T02:13:21;-1.60;99.90
53776;DHT22;44276;49.534;6.378;2023-01-31T02:15:50;-1.50;99.90
53776;DHT22;44276;49.534;6.378;2023-01-31T02:18:20;-1.50;99.90
53776;DHT22;44276;49.534;6.378;2023-01-31T02:24:43;-1.70;99.90
53776;DHT22;44276;49.534;6.378;2023-01-31T02:34:32;-2.40;99.90
53776;DHT22;44276;49.534;6.378;2023-01-31T02:37:15;-2.50;99.90
53776;DHT22;44276;49.534;6.378;2023-01-31T02:40:00;-2.70;99.90
53776;DHT22;44276;49.534;6.378;2023-01-31T02:42:48;-2.60;99.90
53776;DHT22;44276;49.534;6.378;2023-01-31T02:45:33;-2.60;99.90
53776;DHT22;44276;49.534;6.378;2023-01-31T02:48:11;-2.60;99.90
53776;DHT22;44276;49.534;6.378;2023-01-31T02:50:56;-2.60;99.90
53776;DHT22;44276;49.534;6.378;2023-01-31T02:53:33;-2.40;99.90
53776;DHT22;44276;49.534;6.378;2023-01-31T02:56:07;-2.40;99.90
53776;DHT22;44276;49.534;6.378;2023-01-31T02:58:48;-2.60;99.90
53776;DHT22;44276;49.534;6.378;2023-01-31T03:01:25;-2.60;99.90
53776;DHT22;44276;49.534;6.378;2023-01-31T03:04:00;-2.70;99.90
53776;DHT22;44276;49.534;6.378;2023-01-31T03:06:58;-2.90;99.90
53776;DHT22;44276;49.534;6.378;2023-01-31T03:09:35;-2.80;99.90
53776;DHT22;44276;49.534;6.378;2023-01-31T03:12:17;-2.90;99.90
53776;DHT22;44276;49.534;6.378;2023-01-31T03:15:23;-3.00;99.90
53776;DHT22;44276;49.534;6.378;2023-01-31T03:18:18;-3.00;99.90
53776;DHT22;44276;49.534;6.378;2023-01-31T03:20:57;-3.00;99.90
53776;DHT22;44276;49.534;6.378;2023-01-31T03:23:32;-3.00;99.90
53776;DHT22;44276;49.534;6.378;2023-01-31T03:26:05;-3.20;99.90
53776;DHT22;44276;49.534;6.378;2023-01-31T03:28:35;-3.00;99.90
53776;DHT22;44276;49.534;6.378;2023-01-31T03:31:12;-2.70;99.90
53776;DHT22;44276;49.534;6.378;2023-01-31T03:33:48;-2.60;99.90
53776;DHT22;44276;49.534;6.378;2023-01-31T03:36:25;-2.40;99.90
53776;DHT22;44276;49.534;6.378;2023-01-31T03:39:08;-2.50;99.90
53776;DHT22;44276;49.534;6.378;2023-01-31T03:41:52;-2.40;99.90
53776;DHT22;44276;49.534;6.378;2023-01-31T03:44:35;-2.20;99.90
53776;DHT22;44276;49.534;6.378;2023-01-31T03:47:12;-2.00;99.90
53776;DHT22;44276;49.534;6.378;2023-01-31T03:49:43;-1.80;99.90
53776;DHT22;44276;49.534;6.378;2023-01-31T03:52:17;-1.70;99.90
53776;DHT22;44276;49.534;6.378;2023-01-31T03:54:54;-1.60;99.90
53776;DHT22;44276;49.534;6.378;2023-01-31T03:57:32;-1.40;99.90
53776;DHT22;44276;49.534;6.378;2023-01-31T04:00:05;-1.30;99.90
53776;DHT22;44276;49.534;6.378;2023-01-31T04:02:37;-1.20;99.90
53776;DHT22;44276;49.534;6.378;2023-01-31T04:05:09;-1.10;99.90
53776;DHT22;44276;49.534;6.378;2023-01-31T04:07:40;-1.00;99.90
53776;DHT22;44276;49.534;6.378;2023-01-31T04:10:13;-0.90;99.90
53776;DHT22;44276;49.534;6.378;2023-01-31T04:12:44;-0.90;99.90
53776;DHT22;44276;49.534;6.378;2023-01-31T04:15:14;-0.90;99.90
53776;DHT22;44276;49.534;6.378;2023-01-31T04:17:42;-0.80;99.90
53776;DHT22;44276;49.534;6.378;2023-01-31T04:20:11;-0.60;99.90
53776;DHT22;44276;49.534;6.378;2023-01-31T04:22:39;-0.40;99.90
53776;DHT22;44276;49.534;6.378;2023-01-31T04:25:08;-0.30;99.90
53776;DHT22;44276;49.534;6.378;2023-01-31T04:27:38;-0.20;99.90
53776;DHT22;44276;49.534;6.378;2023-01-31T04:30:07;0.00;99.90
53776;DHT22;44276;49.534;6.378;2023-01-31T04:32:36;0.20;99.90
53776;DHT22;44276;49.534;6.378;2023-01-31T04:35:05;0.20;99.90
53776;DHT22;44276;49.534;6.378;2023-01-31T04:37:33;0.30;99.90
53776;DHT22;44276;49.534;6.378;2023-01-31T04:40:02;0.30;99.90
53776;DHT22;44276;49.534;6.378;2023-01-31T04:42:31;0.30;99.90
53776;DHT22;44276;49.534;6.378;2023-01-31T04:45:01;0.40;99.90
53776;DHT22;44276;49.534;6.378;2023-01-31T04:47:29;0.40;99.90
53776;DHT22;44276;49.534;6.378;2023-01-31T04:49:57;0.30;99.90
53776;DHT22;44276;49.534;6.378;2023-01-31T04:52:25;0.30;99.90
53776;DHT22;44276;49.534;6.378;2023-01-31T04:54:53;0.30;99.90
53776;DHT22;44276;49.534;6.378;2023-01-31T04:57:21;0.30;99.90
53776;DHT22;44276;49.534;6.378;2023-01-31T04:59:49;0.30;99.90
53776;DHT22;44276;49.534;6.378;2023-01-31T05:02:19;0.30;99.90
53776;DHT22;44276;49.534;6.378;2023-01-31T05:04:49;0.30;99.90
53776;DHT22;44276;49.534;6.378;2023-01-31T05:07:17;0.30;99.90
53776;DHT22;44276;49.534;6.378;2023-01-31T05:09:45;0.30;99.90
53776;DHT22;44276;49.534;6.378;2023-01-31T05:12:13;0.30;99.90
53776;DHT22;44276;49.534;6.378;2023-01-31T05:14:41;0.40;99.90
53776;DHT22;44276;49.534;6.378;2023-01-31T05:17:09;0.30;99.90
53776;DHT22;44276;49.534;6.378;2023-01-31T05:19:38;0.30;99.90
53776;DHT22;44276;49.534;6.378;2023-01-31T05:22:08;0.30;99.90
53776;DHT22;44276;49.534;6.378;2023-01-31T05:24:36;0.30;99.90
53776;DHT22;44276;49.534;6.378;2023-01-31T05:27:04;0.30;99.90
53776;DHT22;44276;49.534;6.378;2023-01-31T05:29:32;0.40;99.90
53776;DHT22;44276;49.534;6.378;2023-01-31T05:32:01;0.40;99.90
53776;DHT22;44276;49.534;6.378;2023-01-31T05:34:30;0.40;99.90
53776;DHT22;44276;49.534;6.378;2023-01-31T05:37:01;0.40;99.90
53776;DHT22;44276;49.534;6.378;2023-01-31T05:39:29;0.50;99.90
53776;DHT22;44276;49.534;6.378;2023-01-31T05:41:58;0.50;99.90
53776;DHT22;44276;49.534;6.378;2023-01-31T05:44:26;0.50;99.90
53776;DHT22;44276;49.534;6.378;2023-01-31T05:46:54;0.50;99.90
53776;DHT22;44276;49.534;6.378;2023-01-31T05:49:22;0.50;99.90
53776;DHT22;44276;49.534;6.378;2023-01-31T05:51:50;0.50;99.90
53776;DHT22;44276;49.534;6.378;2023-01-31T05:54:22;0.50;99.90
53776;DHT22;44276;49.534;6.378;2023-01-31T05:56:50;0.50;99.90
53776;DHT22;44276;49.534;6.378;2023-01-31T05:59:18;0.50;99.90
53776;DHT22;44276;49.534;6.378;2023-01-31T06:01:46;0.50;99.90
53776;DHT22;44276;49.534;6.378;2023-01-31T06:04:14;0.50;99.90
53776;DHT22;44276;49.534;6.378;2023-01-31T06:06:43;0.50;99.90
53776;DHT22;44276;49.534;6.378;2023-01-31T06:09:11;0.50;99.90
53776;DHT22;44276;49.534;6.378;2023-01-31T06:11:41;0.50;99.90
53776;DHT22;44276;49.534;6.378;2023-01-31T06:14:09;0.50;99.90
53776;DHT22;44276;49.534;6.378;2023-01-31T06:16:39;0.50;99.90
53776;DHT22;44276;49.534;6.378;2023-01-31T06:19:07;0.50;99.90
53776;DHT22;44276;49.534;6.378;2023-01-31T06:21:35;0.60;99.90
53776;DHT22;44276;49.534;6.378;2023-01-31T06:24:04;0.60;99.90
53776;DHT22;44276;49.534;6.378;2023-01-31T06:26:32;0.60;99.90
53776;DHT22;44276;49.534;6.378;2023-01-31T06:29:02;0.60;99.90
53776;DHT22;44276;49.534;6.378;2023-01-31T06:31:31;0.60;99.90
53776;DHT22;44276;49.534;6.378;2023-01-31T06:33:59;0.60;99.90
53776;DHT22;44276;49.534;6.378;2023-01-31T06:36:27;0.60;99.90
53776;DHT22;44276;49.534;6.378;2023-01-31T06:38:55;0.60;99.90
53776;DHT22;44276;49.534;6.378;2023-01-31T06:41:23;0.70;99.90
53776;DHT22;44276;49.534;6.378;2023-01-31T06:43:52;0.70;99.90
53776;DHT22;44276;49.534;6.378;2023-01-31T06:46:22;0.70;99.90
53776;DHT22;44276;49.534;6.378;2023-01-31T06:48:50;0.70;99.90
53776;DHT22;44276;49.534;6.378;2023-01-31T06:51:19;0.70;99.90
53776;DHT22;44276;49.534;6.378;2023-01-31T06:53:47;0.70;99.90
53776;DHT22;44276;49.534;6.378;2023-01-31T06:56:16;0.70;99.90
53776;DHT22;44276;49.534;6.378;2023-01-31T06:58:44;0.70;99.90
53776;DHT22;44276;49.534;6.378;2023-01-31T07:01:13;0.70;99.90
53776;DHT22;44276;49.534;6.378;2023-01-31T07:03:44;0.70;99.90
53776;DHT22;44276;49.534;6.378;2023-01-31T07:06:12;0.80;99.90
53776;DHT22;44276;49.534;6.378;2023-01-31T07:08:40;0.80;99.90
53776;DHT22;44276;49.534;6.378;2023-01-31T07:11:08;0.80;99.90
53776;DHT22;44276;49.534;6.378;2023-01-31T07:13:36;0.80;99.90
53776;DHT22;44276;49.534;6.378;2023-01-31T07:16:04;0.80;99.90
53776;DHT22;44276;49.534;6.378;2023-01-31T07:18:33;0.80;99.90
53776;DHT22;44276;49.534;6.378;2023-01-31T07:21:03;0.80;99.90
53776;DHT22;44276;49.534;6.378;2023-01-31T07:23:31;0.80;99.90
53776;DHT22;44276;49.534;6.378;2023-01-31T07:26:02;0.80;99.90
53776;DHT22;44276;49.534;6.378;2023-01-31T07:28:30;0.80;99.90
53776;DHT22;44276;49.534;6.378;2023-01-31T07:31:06;0.90;99.90
53776;DHT22;44276;49.534;6.378;2023-01-31T07:33:37;0.90;99.90
53776;DHT22;44276;49.534;6.378;2023-01-31T07:36:11;0.90;99.90
53776;DHT22;44276;49.534;6.378;2023-01-31T07:38:41;0.90;99.90
53776;DHT22;44276;49.534;6.378;2023-01-31T07:41:10;1.00;99.90
53776;DHT22;44276;49.534;6.378;2023-01-31T07:43:38;1.00;99.90
53776;DHT22;44276;49.534;6.378;2023-01-31T07:46:07;1.00;99.90
53776;DHT22;44276;49.534;6.378;2023-01-31T07:48:37;1.10;99.90
53776;DHT22;44276;49.534;6.378;2023-01-31T07:51:07;1.10;99.90
53776;DHT22;44276;49.534;6.378;2023-01-31T07:53:37;1.10;99.90
53776;DHT22;44276;49.534;6.378;2023-01-31T07:56:09;1.10;99.90
53776;DHT22;44276;49.534;6.378;2023-01-31T07:58:39;1.10;99.90
53776;DHT22;44276;49.534;6.378;2023-01-31T08:01:11;1.10;99.90
53776;DHT22;44276;49.534;6.378;2023-01-31T08:03:59;1.20;99.90
53776;DHT22;44276;49.534;6.378;2023-01-31T08:06:48;1.20;99.90
53776;DHT22;44276;49.534;6.378;2023-01-31T08:09:19;1.20;99.90
53776;DHT22;44276;49.534;6.378;2023-01-31T08:11:48;1.30;99.90
53776;DHT22;44276;49.534;6.378;2023-01-31T08:14:16;1.40;99.90
53776;DHT22;44276;49.534;6.378;2023-01-31T08:16:49;1.40;99.90
53776;DHT22;44276;49.534;6.378;2023-01-31T08:19:17;1.40;99.90
53776;DHT22;44276;49.534;6.378;2023-01-31T08:21:47;1.50;99.90
53776;DHT22;44276;49.534;6.378;2023-01-31T08:24:15;1.40;99.90
53776;DHT22;44276;49.534;6.378;2023-01-31T08:26:43;1.40;99.90
53776;DHT22;44276;49.534;6.378;2023-01-31T08:29:12;1.40;99.90
53776;DHT22;44276;49.534;6.378;2023-01-31T08:31:40;1.50;99.90
53776;DHT22;44276;49.534;6.378;2023-01-31T08:34:09;1.50;99.90
53776;DHT22;44276;49.534;6.378;2023-01-31T08:36:38;1.60;99.90
53776;DHT22;44276;49.534;6.378;2023-01-31T08:39:07;1.60;99.90
53776;DHT22;44276;49.534;6.378;2023-01-31T08:41:37;1.60;99.90
53776;DHT22;44276;49.534;6.378;2023-01-31T08:44:06;1.60;99.90
53776;DHT22;44276;49.534;6.378;2023-01-31T08:46:35;1.70;99.90
53776;DHT22;44276;49.534;6.378;2023-01-31T08:49:05;1.70;99.90
53776;DHT22;44276;49.534;6.378;2023-01-31T08:51:34;1.80;99.90
53776;DHT22;44276;49.534;6.378;2023-01-31T08:54:03;1.90;99.90
53776;DHT22;44276;49.534;6.378;2023-01-31T08:56:33;2.10;99.90
53776;DHT22;44276;49.534;6.378;2023-01-31T08:59:01;2.20;99.90
53776;DHT22;44276;49.534;6.378;2023-01-31T09:01:30;2.20;99.90
53776;DHT22;44276;49.534;6.378;2023-01-31T09:04:01;2.40;99.90
53776;DHT22;44276;49.534;6.378;2023-01-31T09:06:29;2.50;99.90
53776;DHT22;44276;49.534;6.378;2023-01-31T09:08:57;2.70;99.90
53776;DHT22;44276;49.534;6.378;2023-01-31T09:11:27;2.80;99.90
53776;DHT22;44276;49.534;6.378;2023-01-31T09:13:57;2.90;99.90
53776;DHT22;44276;49.534;6.378;2023-01-31T09:16:25;2.80;99.90
53776;DHT22;44276;49.534;6.378;2023-01-31T09:18:54;2.90;99.90
53776;DHT22;44276;49.534;6.378;2023-01-31T09:21:23;2.90;99.90
53776;DHT22;44276;49.534;6.378;2023-01-31T09:23:54;2.90;99.90
53776;DHT22;44276;49.534;6.378;2023-01-31T09:26:24;2.90;99.90
53776;DHT22;44276;49.534;6.378;2023-01-31T09:28:53;2.90;99.90
53776;DHT22;44276;49.534;6.378;2023-01-31T09:31:23;2.90;99.90
53776;DHT22;44276;49.534;6.378;2023-01-31T09:33:51;2.90;99.90
53776;DHT22;44276;49.534;6.378;2023-01-31T09:36:21;2.80;99.90
53776;DHT22;44276;49.534;6.378;2023-01-31T09:38:52;2.80;99.90
53776;DHT22;44276;49.534;6.378;2023-01-31T09:41:27;2.80;99.90
53776;DHT22;44276;49.534;6.378;2023-01-31T09:44:02;2.90;99.90
53776;DHT22;44276;49.534;6.378;2023-01-31T09:46:38;3.00;99.90
53776;DHT22;44276;49.534;6.378;2023-01-31T09:49:14;3.10;99.90
53776;DHT22;44276;49.534;6.378;2023-01-31T09:51:48;3.10;99.90
53776;DHT22;44276;49.534;6.378;2023-01-31T09:54:26;3.20;99.90
53776;DHT22;44276;49.534;6.378;2023-01-31T09:57:03;3.20;99.90
53776;DHT22;44276;49.534;6.378;2023-01-31T09:59:44;3.30;99.90
53776;DHT22;44276;49.534;6.378;2023-01-31T10:02:33;3.30;99.90
53776;DHT22;44276;49.534;6.378;2023-01-31T10:05:21;3.30;99.90
53776;DHT22;44276;49.534;6.378;2023-01-31T10:08:02;3.40;99.90
53776;DHT22;44276;49.534;6.378;2023-01-31T10:10:37;3.50;99.90
53776;DHT22;44276;49.534;6.378;2023-01-31T10:13:16;3.60;99.90
53776;DHT22;44276;49.534;6.378;2023-01-31T10:15:52;3.70;99.90
53776;DHT22;44276;49.534;6.378;2023-01-31T10:18:29;3.80;99.90
53776;DHT22;44276;49.534;6.378;2023-01-31T10:21:05;3.80;99.90
53776;DHT22;44276;49.534;6.378;2023-01-31T10:23:40;3.90;99.90
53776;DHT22;44276;49.534;6.378;2023-01-31T10:26:15;4.00;99.90
53776;DHT22;44276;49.534;6.378;2023-01-31T10:28:54;4.00;99.90
53776;DHT22;44276;49.534;6.378;2023-01-31T10:31:31;4.10;99.90
53776;DHT22;44276;49.534;6.378;2023-01-31T10:34:13;4.20;99.90
53776;DHT22;44276;49.534;6.378;2023-01-31T10:36:48;4.10;99.90
53776;DHT22;44276;49.534;6.378;2023-01-31T10:39:23;4.10;99.90
53776;DHT22;44276;49.534;6.378;2023-01-31T10:42:05;4.10;99.90
53776;DHT22;44276;49.534;6.378;2023-01-31T10:44:49;4.20;99.90
53776;DHT22;44276;49.534;6.378;2023-01-31T10:47:23;4.30;99.90
53776;DHT22;44276;49.534;6.378;2023-01-31T10:49:57;4.40;99.90
53776;DHT22;44276;49.534;6.378;2023-01-31T10:52:35;4.60;99.90
53776;DHT22;44276;49.534;6.378;2023-01-31T10:55:28;4.80;99.90
53776;DHT22;44276;49.534;6.378;2023-01-31T10:58:10;4.80;99.90
53776;DHT22;44276;49.534;6.378;2023-01-31T11:00:40;4.80;99.90
53776;DHT22;44276;49.534;6.378;2023-01-31T11:03:10;4.70;99.90
53776;DHT22;44276;49.534;6.378;2023-01-31T11:05:47;4.70;99.90
53776;DHT22;44276;49.534;6.378;2023-01-31T11:08:31;4.70;99.90
53776;DHT22;44276;49.534;6.378;2023-01-31T11:11:07;4.80;99.90
53776;DHT22;44276;49.534;6.378;2023-01-31T11:13:37;4.70;99.90
53776;DHT22;44276;49.534;6.378;2023-01-31T11:16:07;4.80;99.90
53776;DHT22;44276;49.534;6.378;2023-01-31T11:18:43;4.80;99.90
53776;DHT22;44276;49.534;6.378;2023-01-31T11:21:21;4.90;99.90
53776;DHT22;44276;49.534;6.378;2023-01-31T11:23:55;4.90;99.90
53776;DHT22;44276;49.534;6.378;2023-01-31T11:26:30;5.00;99.90
53776;DHT22;44276;49.534;6.378;2023-01-31T11:29:01;5.10;99.90
53776;DHT22;44276;49.534;6.378;2023-01-31T11:31:39;5.10;99.90
53776;DHT22;44276;49.534;6.378;2023-01-31T11:34:22;5.10;99.90
53776;DHT22;44276;49.534;6.378;2023-01-31T11:36:54;5.10;99.90
53776;DHT22;44276;49.534;6.378;2023-01-31T11:39:32;5.20;99.90
53776;DHT22;44276;49.534;6.378;2023-01-31T11:42:07;5.20;99.90
53776;DHT22;44276;49.534;6.378;2023-01-31T11:44:58;5.20;99.90
53776;DHT22;44276;49.534;6.378;2023-01-31T11:47:36;5.30;99.90
53776;DHT22;44276;49.534;6.378;2023-01-31T11:50:17;5.40;99.90
53776;DHT22;44276;49.534;6.378;2023-01-31T11:52:55;5.40;99.90
53776;DHT22;44276;49.534;6.378;2023-01-31T11:55:25;5.40;99.90
53776;DHT22;44276;49.534;6.378;2023-01-31T11:57:56;5.50;99.90
53776;DHT22;44276;49.534;6.378;2023-01-31T12:00:29;5.50;99.90
53776;DHT22;44276;49.534;6.378;2023-01-31T12:03:01;5.60;99.90
53776;DHT22;44276;49.534;6.378;2023-01-31T12:05:40;5.70;99.90
53776;DHT22;44276;49.534;6.378;2023-01-31T12:08:30;5.70;99.90
53776;DHT22;44276;49.534;6.378;2023-01-31T12:11:03;5.80;99.90
53776;DHT22;44276;49.534;6.378;2023-01-31T12:13:45;5.90;99.90
53776;DHT22;44276;49.534;6.378;2023-01-31T12:16:16;6.00;99.90
53776;DHT22;44276;49.534;6.378;2023-01-31T12:18:53;6.00;99.90
53776;DHT22;44276;49.534;6.378;2023-01-31T12:21:41;6.00;99.90
53776;DHT22;44276;49.534;6.378;2023-01-31T12:24:29;6.00;99.90
53776;DHT22;44276;49.534;6.378;2023-01-31T12:27:13;6.00;99.90
53776;DHT22;44276;49.534;6.378;2023-01-31T12:30:09;5.90;99.90
53776;DHT22;44276;49.534;6.378;2023-01-31T12:33:02;5.90;99.90
53776;DHT22;44276;49.534;6.378;2023-01-31T12:35:48;5.90;99.90
53776;DHT22;44276;49.534;6.378;2023-01-31T12:38:37;6.00;99.90
53776;DHT22;44276;49.534;6.378;2023-01-31T12:41:24;6.10;99.90
53776;DHT22;44276;49.534;6.378;2023-01-31T12:47:39;6.10;99.90
53776;DHT22;44276;49.534;6.378;2023-01-31T12:50:29;6.00;99.90
53776;DHT22;44276;49.534;6.378;2023-01-31T12:53:24;5.90;99.90
53776;DHT22;44276;49.534;6.378;2023-01-31T12:56:26;5.90;99.90
53776;DHT22;44276;49.534;6.378;2023-01-31T12:59:22;5.90;99.90
53776;DHT22;44276;49.534;6.378;2023-01-31T13:02:13;6.00;99.90
53776;DHT22;44276;49.534;6.378;2023-01-31T13:04:55;6.10;99.90
53776;DHT22;44276;49.534;6.378;2023-01-31T13:07:33;6.30;99.90
53776;DHT22;44276;49.534;6.378;2023-01-31T13:10:19;6.50;99.90
53776;DHT22;44276;49.534;6.378;2023-01-31T13:12:58;6.50;99.90
53776;DHT22;44276;49.534;6.378;2023-01-31T13:15:31;6.40;99.90
53776;DHT22;44276;49.534;6.378;2023-01-31T13:18:09;6.30;99.90
53776;DHT22;44276;49.534;6.378;2023-01-31T13:20:44;6.30;99.90
53776;DHT22;44276;49.534;6.378;2023-01-31T13:23:22;6.30;99.90
53776;DHT22;44276;49.534;6.378;2023-01-31T13:26:02;6.20;99.90
53776;DHT22;44276;49.534;6.378;2023-01-31T13:28:36;6.20;99.90
53776;DHT22;44276;49.534;6.378;2023-01-31T13:31:18;6.20;99.90
53776;DHT22;44276;49.534;6.378;2023-01-31T13:33:55;6.10;99.90
53776;DHT22;44276;49.534;6.378;2023-01-31T13:36:29;6.10;99.90
53776;DHT22;44276;49.534;6.378;2023-01-31T13:39:04;6.10;99.90
53776;DHT22;44276;49.534;6.378;2023-01-31T13:41:36;6.00;99.90
53776;DHT22;44276;49.534;6.378;2023-01-31T13:44:11;6.00;99.90
53776;DHT22;44276;49.534;6.378;2023-01-31T13:46:45;6.00;99.90
53776;DHT22;44276;49.534;6.378;2023-01-31T13:49:23;6.00;99.90
53776;DHT22;44276;49.534;6.378;2023-01-31T13:51:57;6.00;99.90
53776;DHT22;44276;49.534;6.378;2023-01-31T13:54:31;6.00;99.90
53776;DHT22;44276;49.534;6.378;2023-01-31T13:57:04;6.00;99.90
53776;DHT22;44276;49.534;6.378;2023-01-31T13:59:36;6.00;99.90
53776;DHT22;44276;49.534;6.378;2023-01-31T14:02:16;6.00;99.90
53776;DHT22;44276;49.534;6.378;2023-01-31T14:04:46;5.90;99.90
53776;DHT22;44276;49.534;6.378;2023-01-31T14:07:19;6.00;99.90
53776;DHT22;44276;49.534;6.378;2023-01-31T14:10:26;6.00;99.90
53776;DHT22;44276;49.534;6.378;2023-01-31T14:13:24;6.00;99.90
53776;DHT22;44276;49.534;6.378;2023-01-31T14:16:37;6.10;99.90
53776;DHT22;44276;49.534;6.378;2023-01-31T14:19:33;6.10;99.90
53776;DHT22;44276;49.534;6.378;2023-01-31T14:22:31;6.10;99.90
53776;DHT22;44276;49.534;6.378;2023-01-31T14:25:05;6.30;99.90
53776;DHT22;44276;49.534;6.378;2023-01-31T14:28:00;6.10;99.90
53776;DHT22;44276;49.534;6.378;2023-01-31T14:30:39;6.10;99.90
53776;DHT22;44276;49.534;6.378;2023-01-31T14:33:26;6.10;99.90
53776;DHT22;44276;49.534;6.378;2023-01-31T14:39:49;5.90;99.90
53776;DHT22;44276;49.534;6.378;2023-01-31T14:46:29;5.90;99.90
53776;DHT22;44276;49.534;6.378;2023-01-31T14:49:35;5.90;99.90
53776;DHT22;44276;49.534;6.378;2023-01-31T14:52:35;5.70;99.90
53776;DHT22;44276;49.534;6.378;2023-01-31T14:55:47;5.70;99.90
53776;DHT22;44276;49.534;6.378;2023-01-31T14:58:28;5.70;99.90
53776;DHT22;44276;49.534;6.378;2023-01-31T15:01:02;5.60;99.90
53776;DHT22;44276;49.534;6.378;2023-01-31T15:03:35;5.60;99.90
53776;DHT22;44276;49.534;6.378;2023-01-31T15:06:09;5.60;99.90
53776;DHT22;44276;49.534;6.378;2023-01-31T15:08:43;5.60;99.90
53776;DHT22;44276;49.534;6.378;2023-01-31T15:11:34;5.50;99.90
53776;DHT22;44276;49.534;6.378;2023-01-31T15:14:23;5.50;99.90
53776;DHT22;44276;49.534;6.378;2023-01-31T15:17:04;5.60;99.90
53776;DHT22;44276;49.534;6.378;2023-01-31T15:20:05;5.60;99.90
53776;DHT22;44276;49.534;6.378;2023-01-31T15:22:46;5.50;99.90
53776;DHT22;44276;49.534;6.378;2023-01-31T15:25:31;5.50;99.90
53776;DHT22;44276;49.534;6.378;2023-01-31T15:28:02;5.50;99.90
53776;DHT22;44276;49.534;6.378;2023-01-31T15:30:34;5.50;99.90
53776;DHT22;44276;49.534;6.378;2023-01-31T15:33:05;5.50;99.90
53776;DHT22;44276;49.534;6.378;2023-01-31T15:35:45;5.50;99.90
53776;DHT22;44276;49.534;6.378;2023-01-31T15:38:27;5.50;99.90
53776;DHT22;44276;49.534;6.378;2023-01-31T15:41:18;5.50;99.90
53776;DHT22;44276;49.534;6.378;2023-01-31T15:43:49;5.50;99.90
53776;DHT22;44276;49.534;6.378;2023-01-31T15:46:24;5.40;99.90
53776;DHT22;44276;49.534;6.378;2023-01-31T15:48:55;5.50;99.90
53776;DHT22;44276;49.534;6.378;2023-01-31T15:51:24;5.50;99.90
53776;DHT22;44276;49.534;6.378;2023-01-31T15:54:02;5.50;99.90
53776;DHT22;44276;49.534;6.378;2023-01-31T15:56:35;5.40;99.90
53776;DHT22;44276;49.534;6.378;2023-01-31T15:59:11;5.40;99.90
53776;DHT22;44276;49.534;6.378;2023-01-31T16:01:46;5.40;99.90
53776;DHT22;44276;49.534;6.378;2023-01-31T16:04:15;5.40;99.90
53776;DHT22;44276;49.534;6.378;2023-01-31T16:06:45;5.40;99.90
53776;DHT22;44276;49.534;6.378;2023-01-31T16:09:24;5.40;99.90
53776;DHT22;44276;49.534;6.378;2023-01-31T16:11:54;5.40;99.90
53776;DHT22;44276;49.534;6.378;2023-01-31T16:14:24;5.40;99.90
53776;DHT22;44276;49.534;6.378;2023-01-31T16:16:54;5.40;99.90
53776;DHT22;44276;49.534;6.378;2023-01-31T16:19:26;5.40;99.90
53776;DHT22;44276;49.534;6.378;2023-01-31T16:21:57;5.40;99.90
53776;DHT22;44276;49.534;6.378;2023-01-31T16:24:27;5.40;99.90
53776;DHT22;44276;49.534;6.378;2023-01-31T16:26:59;5.40;99.90
53776;DHT22;44276;49.534;6.378;2023-01-31T16:29:37;5.40;99.90
53776;DHT22;44276;49.534;6.378;2023-01-31T16:32:14;5.40;99.90
53776;DHT22;44276;49.534;6.378;2023-01-31T16:34:52;5.40;99.90
53776;DHT22;44276;49.534;6.378;2023-01-31T16:37:32;5.40;99.90
53776;DHT22;44276;49.534;6.378;2023-01-31T16:40:09;5.50;99.90
53776;DHT22;44276;49.534;6.378;2023-01-31T16:42:46;5.40;99.90
53776;DHT22;44276;49.534;6.378;2023-01-31T16:45:26;5.40;99.90
53776;DHT22;44276;49.534;6.378;2023-01-31T16:48:11;5.40;99.90
53776;DHT22;44276;49.534;6.378;2023-01-31T16:50:48;5.40;99.90